createdAt,value
2023-04-22T00:00:11.971Z,68.70
2023-04-22T00:05:15.653Z,68.70
2023-04-22T00:10:15.499Z,68.70
2023-04-22T00:15:13.524Z,69.90
2023-04-22T00:20:13.591Z,69.50
2023-04-22T00:25:11.828Z,69.70
2023-04-22T00:30:11.006Z,69.70
2023-04-22T00:35:09.815Z,69.60
2023-04-22T00:40:11.366Z,69.80
2023-04-22T00:45:12.932Z,69.80
2023-04-22T00:50:10.986Z,69.80
2023-04-22T00:55:11.389Z,69.90
2023-04-22T01:00:11.067Z,70.90
2023-04-22T01:05:10.834Z,70.60
2023-04-22T01:10:11.443Z,71.40
2023-04-22T01:15:11.036Z,71.60
2023-04-22T01:20:11.228Z,71.70
2023-04-22T01:25:11.644Z,71.90
2023-04-22T01:30:11.534Z,72.30
2023-04-22T01:35:11.909Z,71.50
2023-04-22T01:40:13.578Z,72.80
2023-04-22T01:45:13.298Z,72.60
2023-04-22T01:50:11.927Z,72.70
2023-04-22T01:55:11.847Z,73.00
2023-04-22T02:00:11.964Z,73.10
2023-04-22T02:05:17.315Z,73.90
2023-04-22T02:10:18.883Z,73.90
2023-04-22T02:20:32.890Z,73.60
2023-04-22T02:25:32.517Z,74.50
2023-04-22T02:30:30.529Z,74.80
2023-04-22T02:35:28.780Z,75.10
2023-04-22T02:40:26.955Z,75.30
2023-04-22T02:45:26.532Z,75.50
2023-04-22T02:50:24.618Z,76.60
2023-04-22T02:55:24.543Z,76.30
2023-04-22T03:00:22.804Z,77.30
2023-04-22T03:05:22.576Z,78.10
2023-04-22T03:10:21.450Z,77.70
2023-04-22T03:15:21.439Z,78.00
2023-04-22T03:20:20.226Z,78.70
2023-04-22T03:25:20.513Z,79.00
2023-04-22T03:30:24.023Z,79.40
2023-04-22T03:35:22.173Z,80.20
2023-04-22T03:40:23.939Z,80.70
2023-04-22T03:45:22.390Z,80.00
2023-04-22T03:50:33.039Z,80.10
2023-04-22T03:55:34.419Z,80.50
2023-04-22T04:00:32.914Z,80.90
2023-04-22T04:05:40.084Z,81.50
2023-04-22T04:10:39.719Z,82.50
2023-04-22T04:15:38.356Z,83.90
2023-04-22T04:20:38.041Z,84.70
2023-04-22T04:25:38.975Z,84.70
2023-04-22T04:30:42.763Z,84.40
2023-04-22T04:35:41.904Z,84.50
2023-04-22T04:40:45.309Z,85.10
2023-04-22T04:45:49.736Z,85.30
2023-04-22T04:50:54.218Z,85.80
2023-04-22T04:55:54.182Z,87.10
2023-04-22T05:00:56.175Z,87.00
2023-04-22T05:05:57.544Z,87.10
2023-04-22T05:10:57.780Z,87.70
2023-04-22T05:15:57.923Z,87.60
2023-04-22T05:20:58.934Z,87.80
2023-04-22T05:25:57.246Z,87.70
2023-04-22T05:30:57.483Z,88.20
2023-04-22T05:35:58.843Z,89.10
2023-04-22T05:40:57.904Z,88.70
2023-04-22T05:45:58.480Z,89.10
2023-04-22T05:50:58.004Z,89.60
2023-04-22T05:56:00.239Z,88.40
2023-04-22T06:00:59.869Z,88.70
2023-04-22T06:06:16.869Z,87.70
2023-04-22T06:11:15.169Z,88.20
2023-04-22T06:16:15.039Z,87.80
2023-04-22T06:21:13.433Z,87.70
2023-04-22T06:26:11.745Z,86.50
2023-04-22T06:31:10.037Z,86.60
2023-04-22T06:36:10.066Z,86.50
2023-04-22T06:41:09.688Z,86.40
2023-04-22T06:46:11.607Z,87.10
2023-04-22T06:51:29.654Z,85.90
2023-04-22T06:56:27.996Z,85.30
2023-04-22T07:01:26.352Z,86.40
2023-04-22T07:06:24.722Z,85.70
2023-04-22T07:11:24.340Z,86.50
2023-04-22T07:16:34.891Z,86.90
2023-04-22T07:21:33.445Z,85.40
2023-04-22T07:26:34.536Z,85.30
2023-04-22T07:31:32.765Z,86.70
2023-04-22T07:36:32.834Z,84.70
2023-04-22T07:41:32.492Z,83.30
2023-04-22T07:46:31.101Z,83.90
2023-04-22T07:51:29.920Z,83.90
2023-04-22T07:56:28.132Z,83.50
2023-04-22T08:01:27.771Z,85.00
2023-04-22T08:06:26.006Z,83.10
2023-04-22T08:11:24.265Z,83.50
2023-04-22T08:16:22.530Z,81.90
2023-04-22T08:21:22.209Z,81.30
2023-04-22T08:26:20.477Z,81.40
2023-04-22T08:31:18.687Z,82.00
2023-04-22T08:36:17.001Z,81.80
2023-04-22T08:41:16.865Z,80.80
2023-04-22T08:46:16.855Z,80.70
2023-04-22T08:51:16.653Z,82.20
2023-04-22T08:56:16.422Z,79.80
2023-04-22T09:01:15.232Z,79.00
2023-04-22T09:06:13.662Z,78.10
2023-04-22T09:11:12.090Z,73.40
2023-04-22T09:16:11.727Z,66.10
2023-04-22T09:21:10.156Z,65.20
2023-04-22T09:26:09.634Z,65.40
2023-04-22T09:31:07.835Z,61.00
2023-04-22T09:36:10.734Z,60.20
2023-04-22T09:41:10.707Z,61.00
2023-04-22T09:46:10.977Z,57.10
2023-04-22T09:51:18.078Z,55.20
2023-04-22T09:56:16.300Z,55.40
2023-04-22T10:01:14.531Z,55.00
2023-04-22T10:06:12.834Z,53.60
2023-04-22T10:11:13.154Z,52.70
2023-04-22T10:16:11.265Z,51.60
2023-04-22T10:21:10.237Z,51.80
2023-04-22T10:26:08.467Z,51.60
2023-04-22T10:31:22.409Z,52.10
2023-04-22T10:36:21.598Z,51.30
2023-04-22T10:41:24.898Z,49.50
2023-04-22T10:47:01.372Z,50.30
2023-04-22T10:52:01.010Z,51.00
2023-04-22T10:57:03.369Z,51.10
2023-04-22T11:02:04.273Z,51.20
2023-04-22T11:07:14.935Z,53.30
2023-04-22T11:12:44.890Z,52.00
2023-04-22T11:17:46.111Z,52.70
2023-04-22T11:22:45.852Z,51.10
2023-04-22T11:27:44.535Z,49.60
2023-04-22T11:32:45.976Z,53.10
2023-04-22T11:37:47.053Z,50.30
2023-04-22T11:42:45.107Z,48.30
2023-04-22T11:47:45.943Z,50.20
2023-04-22T11:52:45.977Z,48.70
2023-04-22T11:57:46.076Z,49.30
2023-04-22T12:02:57.504Z,48.90
2023-04-22T12:07:55.836Z,48.40
2023-04-22T12:12:54.055Z,48.00
2023-04-22T12:17:53.684Z,48.60
2023-04-22T12:22:54.486Z,48.70
2023-04-22T12:27:52.787Z,48.40
2023-04-22T12:32:51.021Z,47.20
2023-04-22T12:37:50.696Z,48.00
2023-04-22T12:42:50.123Z,47.70
2023-04-22T12:47:49.613Z,46.60
2023-04-22T12:52:48.476Z,47.20
2023-04-22T12:57:50.826Z,46.80
2023-04-22T13:02:50.459Z,48.00
2023-04-22T13:07:59.680Z,47.60
2023-04-22T13:18:09.185Z,48.20
2023-04-22T13:23:08.234Z,47.60
2023-04-22T13:28:07.797Z,48.40
2023-04-22T13:33:06.025Z,48.90
2023-04-22T13:38:05.141Z,49.00
2023-04-22T13:43:03.200Z,49.00
2023-04-22T13:48:03.045Z,48.70
2023-04-22T13:53:01.333Z,48.00
2023-04-22T13:58:01.238Z,48.20
2023-04-22T14:02:59.720Z,48.80
2023-04-22T14:08:01.225Z,47.90
2023-04-22T14:12:59.491Z,47.80
2023-04-22T14:17:57.879Z,49.70
2023-04-22T14:22:56.124Z,47.50
2023-04-22T14:27:55.947Z,47.80
2023-04-22T14:32:54.209Z,45.80
2023-04-22T14:37:52.403Z,46.00
2023-04-22T14:48:08.705Z,47.80
2023-04-22T14:53:07.418Z,47.70
2023-04-22T14:58:08.119Z,48.70
2023-04-22T15:03:06.527Z,47.60
2023-04-22T15:08:06.585Z,46.50
2023-04-22T15:13:04.829Z,46.50
2023-04-22T15:18:03.285Z,47.20
2023-04-22T15:23:03.007Z,47.70
2023-04-22T15:28:02.747Z,47.30
2023-04-22T15:33:01.163Z,46.20
2023-04-22T15:38:00.100Z,46.00
2023-04-22T15:42:58.341Z,45.50
2023-04-22T15:47:58.015Z,47.00
2023-04-22T15:52:56.240Z,45.60
2023-04-22T15:57:54.480Z,46.40
2023-04-22T16:02:55.885Z,46.20
2023-04-22T16:07:56.266Z,46.80
2023-04-22T16:12:54.472Z,46.70
2023-04-22T16:17:52.828Z,47.50
2023-04-22T16:22:51.242Z,46.90
2023-04-22T16:27:50.870Z,47.00
2023-04-22T16:32:49.532Z,47.10
2023-04-22T16:37:47.841Z,47.40
2023-04-22T16:42:46.110Z,47.40
2023-04-22T16:47:45.526Z,46.60
2023-04-22T16:52:43.744Z,47.20
2023-04-22T16:57:41.902Z,48.10
2023-04-22T17:02:40.510Z,47.60
2023-04-22T17:07:40.042Z,47.60
2023-04-22T17:12:38.547Z,47.70
2023-04-22T17:17:36.997Z,48.50
2023-04-22T17:22:36.313Z,48.30
2023-04-22T17:27:35.892Z,49.20
2023-04-22T17:32:34.020Z,49.40
2023-04-22T17:37:32.087Z,49.00
2023-04-22T17:42:44.771Z,49.60
2023-04-22T17:47:45.307Z,49.90
2023-04-22T17:52:44.208Z,50.30
2023-04-22T17:57:42.470Z,50.60
2023-04-22T18:02:40.910Z,50.80
2023-04-22T18:07:40.764Z,51.30
2023-04-22T18:12:38.996Z,52.00
2023-04-22T18:17:37.259Z,52.40
2023-04-22T18:22:35.476Z,52.20
2023-04-22T18:27:35.212Z,52.80
2023-04-22T18:32:33.507Z,53.60
2023-04-22T18:37:34.515Z,53.60
2023-04-22T18:42:34.317Z,53.90
2023-04-22T18:47:32.653Z,55.20
2023-04-22T18:52:30.958Z,54.30
2023-04-22T18:57:29.154Z,53.90
2023-04-22T19:02:28.765Z,54.60
2023-04-22T19:07:27.040Z,55.20
2023-04-22T19:12:25.124Z,56.10
2023-04-22T19:17:23.501Z,56.90
2023-04-22T19:22:23.469Z,57.00
2023-04-22T19:27:22.024Z,57.00
2023-04-22T19:32:20.504Z,57.90
2023-04-22T19:37:18.812Z,58.30
2023-04-22T19:42:20.917Z,58.40
2023-04-22T19:47:19.521Z,58.10
2023-04-22T19:52:17.890Z,57.60
2023-04-22T19:57:16.835Z,57.90
2023-04-22T20:02:16.952Z,59.20
2023-04-22T20:07:16.301Z,59.40
2023-04-22T20:12:14.784Z,58.90
2023-04-22T20:17:13.280Z,58.80
2023-04-22T20:22:15.011Z,58.10
2023-04-22T20:27:13.896Z,58.40
2023-04-22T20:32:12.444Z,58.60
2023-04-22T20:37:13.528Z,59.50
2023-04-22T20:42:11.769Z,60.50
2023-04-22T20:47:10.049Z,59.40
2023-04-22T20:52:09.534Z,59.50
2023-04-22T20:57:10.012Z,59.30
2023-04-22T21:02:09.403Z,59.80
2023-04-22T21:07:11.923Z,59.60
2023-04-22T21:12:12.551Z,59.20
2023-04-22T21:17:19.549Z,59.30
2023-04-22T21:22:22.150Z,59.70
2023-04-22T21:27:22.998Z,59.70
2023-04-22T21:32:21.231Z,60.20
2023-04-22T21:37:19.273Z,60.10
2023-04-22T21:42:17.634Z,59.90
2023-04-22T21:47:17.299Z,60.60
2023-04-22T21:52:15.511Z,61.30
2023-04-22T21:57:13.811Z,61.10
2023-04-22T22:02:12.101Z,60.80
2023-04-22T22:07:12.340Z,61.20
2023-04-22T22:12:12.241Z,62.30
2023-04-22T22:17:10.323Z,61.40
2023-04-22T22:22:08.687Z,61.90
2023-04-22T22:27:09.846Z,62.30
2023-04-22T22:32:08.441Z,62.40
2023-04-22T22:37:06.755Z,62.50
2023-04-22T22:42:05.061Z,62.80
2023-04-22T22:47:04.496Z,63.50
2023-04-22T22:52:03.114Z,63.90
2023-04-22T22:57:01.819Z,63.90
2023-04-22T23:02:01.007Z,64.60
2023-04-22T23:07:00.616Z,64.30
2023-04-22T23:11:58.855Z,64.30
2023-04-22T23:16:57.134Z,64.30
2023-04-22T23:21:56.477Z,64.80
2023-04-22T23:26:57.220Z,64.90
2023-04-22T23:31:56.501Z,65.00
2023-04-22T23:36:55.760Z,65.10
2023-04-22T23:41:55.448Z,65.10
2023-04-22T23:46:53.500Z,65.80
2023-04-22T23:51:51.717Z,66.00
2023-04-22T23:56:50.558Z,66.60
